createdAt,value
2017-10-07T00:00:18.201Z,0
2017-10-07T00:01:17.532Z,0
2017-10-07T00:02:16.883Z,0
2017-10-07T00:03:17.820Z,0
2017-10-07T00:04:17.802Z,0
2017-10-07T00:05:17.829Z,0
2017-10-07T00:06:17.130Z,0
2017-10-07T00:07:17.772Z,0
2017-10-07T00:08:17.768Z,0
2017-10-07T00:09:17.730Z,0
2017-10-07T00:10:17.073Z,0
2017-10-07T00:11:17.695Z,0
2017-10-07T00:12:17.678Z,0
2017-10-07T00:13:17.665Z,0
2017-10-07T00:14:17.209Z,0
2017-10-07T00:15:17.953Z,0
2017-10-07T00:16:17.941Z,0
2017-10-07T00:17:17.289Z,0
2017-10-07T00:18:17.261Z,0
2017-10-07T00:19:17.577Z,0
2017-10-07T00:20:17.870Z,0
2017-10-07T00:21:16.900Z,0
2017-10-07T00:22:17.515Z,0
2017-10-07T00:23:16.867Z,0
2017-10-07T00:24:17.170Z,0
2017-10-07T00:25:17.155Z,0
2017-10-07T00:26:17.132Z,0
2017-10-07T00:27:16.800Z,0
2017-10-07T00:28:17.424Z,0
2017-10-07T00:29:17.405Z,0
2017-10-07T00:30:17.718Z,0
2017-10-07T00:31:17.374Z,0
2017-10-07T00:32:17.379Z,0
2017-10-07T00:33:16.385Z,0
2017-10-07T00:34:17.006Z,0
2017-10-07T00:35:17.002Z,0
2017-10-07T00:36:17.620Z,0
2017-10-07T00:37:17.600Z,0
2017-10-07T00:38:16.306Z,0
2017-10-07T00:39:17.570Z,0
2017-10-07T00:40:16.593Z,0
2017-10-07T00:41:16.907Z,0
2017-10-07T00:42:16.557Z,0
2017-10-07T00:43:17.186Z,0
2017-10-07T00:44:16.520Z,0
2017-10-07T00:45:16.838Z,0
2017-10-07T00:46:16.821Z,0
2017-10-07T00:47:16.792Z,0
2017-10-07T00:48:16.783Z,0
2017-10-07T00:49:16.450Z,0
2017-10-07T00:50:17.088Z,0
2017-10-07T00:51:16.742Z,0
2017-10-07T00:52:17.351Z,0
2017-10-07T00:53:16.793Z,0
2017-10-07T00:54:16.695Z,0
2017-10-07T00:55:16.031Z,0
2017-10-07T00:56:17.305Z,0
2017-10-07T00:57:16.638Z,0
2017-10-07T00:58:16.626Z,0
2017-10-07T00:59:16.617Z,0
2017-10-07T01:00:16.915Z,0
2017-10-07T01:01:16.897Z,0
2017-10-07T01:02:16.563Z,0
2017-10-07T01:03:15.893Z,0
2017-10-07T01:04:16.854Z,0
2017-10-07T01:05:16.189Z,0
2017-10-07T01:06:16.170Z,0
2017-10-07T01:07:16.161Z,0
2017-10-07T01:08:16.790Z,0
2017-10-07T01:09:16.443Z,0
2017-10-07T01:10:16.757Z,0
2017-10-07T01:11:16.407Z,0
2017-10-07T01:12:16.078Z,0
2017-10-07T01:13:16.388Z,0
2017-10-07T01:14:16.044Z,0
2017-10-07T01:15:16.028Z,0
2017-10-07T01:16:16.013Z,0
2017-10-07T01:17:16.316Z,0
2017-10-07T01:18:16.670Z,0
2017-10-07T01:19:15.965Z,0
2017-10-07T01:20:16.587Z,0
2017-10-07T01:21:16.585Z,0
2017-10-07T01:22:16.558Z,0
2017-10-07T01:23:16.222Z,0
2017-10-07T01:24:15.883Z,0
2017-10-07T01:25:16.183Z,0
2017-10-07T01:26:16.171Z,0
2017-10-07T01:27:16.155Z,0
2017-10-07T01:28:16.133Z,0
2017-10-07T01:29:16.445Z,0
2017-10-07T01:30:15.792Z,0
2017-10-07T01:31:16.087Z,0
2017-10-07T01:32:16.068Z,0
2017-10-07T01:33:16.072Z,0
2017-10-07T01:34:15.736Z,0
2017-10-07T01:35:15.382Z,0
2017-10-07T01:36:15.367Z,0
2017-10-07T01:37:15.990Z,0
2017-10-07T01:38:15.985Z,0
2017-10-07T01:39:16.292Z,0
2017-10-07T01:40:16.267Z,0
2017-10-07T01:41:16.243Z,0
2017-10-07T01:42:15.586Z,0
2017-10-07T01:43:16.212Z,0
2017-10-07T01:44:16.201Z,0
2017-10-07T01:45:15.854Z,0
2017-10-07T01:46:16.158Z,0
2017-10-07T01:47:15.505Z,0
2017-10-07T01:48:16.453Z,0
2017-10-07T01:49:15.464Z,0
2017-10-07T01:50:15.776Z,0
2017-10-07T01:51:15.440Z,0
2017-10-07T01:52:16.063Z,0
2017-10-07T01:53:16.050Z,0
2017-10-07T01:54:16.353Z,0
2017-10-07T01:55:16.013Z,0
2017-10-07T01:56:15.677Z,0
2017-10-07T01:57:15.987Z,0
2017-10-07T01:58:15.648Z,0
2017-10-07T01:59:15.946Z,0
2017-10-07T02:00:15.935Z,0
2017-10-07T02:01:15.913Z,0
2017-10-07T02:02:15.260Z,0
2017-10-07T02:03:15.566Z,0
2017-10-07T02:04:15.225Z,0
2017-10-07T02:05:15.847Z,0
2017-10-07T02:06:15.830Z,0
2017-10-07T02:07:15.511Z,0
2017-10-07T02:08:16.121Z,0
2017-10-07T02:09:15.143Z,0
2017-10-07T02:10:15.455Z,0
2017-10-07T02:11:15.116Z,0
2017-10-07T02:12:15.746Z,0
2017-10-07T02:13:16.042Z,0
2017-10-07T02:14:15.591Z,0
2017-10-07T02:15:15.377Z,0
2017-10-07T02:16:15.676Z,0
2017-10-07T02:17:15.663Z,0
2017-10-07T02:18:14.672Z,0
2017-10-07T02:19:15.310Z,0
2017-10-07T02:20:15.284Z,0
2017-10-07T02:21:15.284Z,0
2017-10-07T02:22:15.574Z,0
2017-10-07T02:23:15.241Z,0
2017-10-07T02:24:14.587Z,0
2017-10-07T02:25:14.890Z,0
2017-10-07T02:26:15.513Z,0
2017-10-07T02:27:15.501Z,0
2017-10-07T02:28:15.798Z,0
2017-10-07T02:29:15.459Z,0
2017-10-07T02:30:15.131Z,0
2017-10-07T02:31:15.109Z,0
2017-10-07T02:32:15.087Z,0
2017-10-07T02:33:15.770Z,0
2017-10-07T02:34:15.409Z,0
2017-10-07T02:35:14.722Z,0
2017-10-07T02:36:15.041Z,0
2017-10-07T02:37:15.339Z,0
2017-10-07T02:38:15.319Z,0
2017-10-07T02:39:14.659Z,0
2017-10-07T02:40:14.647Z,0
2017-10-07T02:41:14.952Z,0
2017-10-07T02:42:14.621Z,0
2017-10-07T02:43:15.233Z,0
2017-10-07T02:44:15.226Z,0
2017-10-07T02:45:15.206Z,0
2017-10-07T02:46:15.188Z,0
2017-10-07T02:47:14.856Z,0
2017-10-07T02:48:14.842Z,0
2017-10-07T02:49:14.819Z,0
2017-10-07T02:50:14.820Z,0
2017-10-07T02:51:15.111Z,0
2017-10-07T02:52:14.768Z,0
2017-10-07T02:53:14.764Z,0
2017-10-07T02:54:15.088Z,0
2017-10-07T02:55:14.770Z,0
2017-10-07T02:56:15.028Z,0
2017-10-07T02:57:15.005Z,0
2017-10-07T02:58:14.671Z,0
2017-10-07T02:59:14.980Z,0
2017-10-07T03:00:14.645Z,0
2017-10-07T03:01:15.267Z,0
2017-10-07T03:02:15.262Z,0
2017-10-07T03:03:14.938Z,0
2017-10-07T03:04:14.251Z,0
2017-10-07T03:05:14.873Z,0
2017-10-07T03:06:14.542Z,0
2017-10-07T03:07:14.525Z,0
2017-10-07T03:08:14.504Z,0
2017-10-07T03:09:14.811Z,0
2017-10-07T03:10:14.799Z,0
2017-10-07T03:11:14.453Z,0
2017-10-07T03:12:14.446Z,0
2017-10-07T03:13:14.751Z,0
2017-10-07T03:14:14.406Z,0
2017-10-07T03:15:14.714Z,0
2017-10-07T03:16:14.706Z,0
2017-10-07T03:17:14.684Z,0
2017-10-07T03:18:14.030Z,0
2017-10-07T03:19:14.004Z,0
2017-10-07T03:20:14.317Z,0
2017-10-07T03:21:14.300Z,0
2017-10-07T03:22:14.330Z,0
2017-10-07T03:23:14.577Z,0
2017-10-07T03:24:14.260Z,0
2017-10-07T03:25:14.551Z,0
2017-10-07T03:26:14.217Z,0
2017-10-07T03:27:14.847Z,0
2017-10-07T03:28:14.190Z,0
2017-10-07T03:29:14.158Z,0
2017-10-07T03:30:14.152Z,0
2017-10-07T03:31:14.133Z,0
2017-10-07T03:32:14.757Z,0
2017-10-07T03:33:14.101Z,0
2017-10-07T03:34:14.415Z,0
2017-10-07T03:35:14.116Z,0
2017-10-07T03:36:14.710Z,0
2017-10-07T03:37:14.357Z,0
2017-10-07T03:38:14.659Z,0
2017-10-07T03:39:14.006Z,0
2017-10-07T03:40:13.990Z,0
2017-10-07T03:41:14.295Z,0
2017-10-07T03:42:14.284Z,0
2017-10-07T03:43:14.265Z,0
2017-10-07T03:44:13.602Z,0
2017-10-07T03:45:13.903Z,0
2017-10-07T03:46:14.215Z,0
2017-10-07T03:47:13.870Z,0
2017-10-07T03:48:14.177Z,0
2017-10-07T03:49:14.492Z,0
2017-10-07T03:50:13.818Z,0
2017-10-07T03:51:13.804Z,0
2017-10-07T03:52:14.433Z,0
2017-10-07T03:53:14.410Z,0
2017-10-07T03:54:13.433Z,0
2017-10-07T03:55:13.745Z,0
2017-10-07T03:56:13.726Z,0
2017-10-07T03:57:14.027Z,0
2017-10-07T03:58:13.697Z,0
2017-10-07T03:59:13.034Z,0
2017-10-07T04:00:14.018Z,0
2017-10-07T04:01:13.980Z,0
2017-10-07T04:02:13.312Z,0
2017-10-07T04:03:13.288Z,0
2017-10-07T04:04:14.237Z,0
2017-10-07T04:05:14.212Z,0
2017-10-07T04:06:13.555Z,0
2017-10-07T04:07:13.858Z,0
2017-10-07T04:08:13.529Z,0
2017-10-07T04:09:13.511Z,0
2017-10-07T04:10:13.169Z,0
2017-10-07T04:11:13.469Z,0
2017-10-07T04:12:13.466Z,0
2017-10-07T04:13:13.444Z,0
2017-10-07T04:14:14.038Z,0
2017-10-07T04:15:13.404Z,0
2017-10-07T04:16:13.073Z,0
2017-10-07T04:17:14.022Z,0
2017-10-07T04:18:13.368Z,0
2017-10-07T04:19:13.021Z,0
2017-10-07T04:20:13.656Z,0
2017-10-07T04:21:13.958Z,0
2017-10-07T04:22:13.939Z,0
2017-10-07T04:23:13.596Z,0
2017-10-07T04:24:12.935Z,0
2017-10-07T04:25:13.894Z,0
2017-10-07T04:26:13.228Z,0
2017-10-07T04:27:13.236Z,0
2017-10-07T04:28:13.518Z,0
2017-10-07T04:29:13.503Z,0
2017-10-07T04:30:13.478Z,0
2017-10-07T04:31:12.813Z,0
2017-10-07T04:32:13.123Z,0
2017-10-07T04:33:13.426Z,0
2017-10-07T04:34:12.778Z,0
2017-10-07T04:35:13.078Z,0
2017-10-07T04:36:12.738Z,0
2017-10-07T04:37:13.042Z,0
2017-10-07T04:38:13.380Z,0
2017-10-07T04:39:13.660Z,0
2017-10-07T04:40:13.315Z,0
2017-10-07T04:41:13.305Z,0
2017-10-07T04:42:13.283Z,0
2017-10-07T04:43:12.950Z,0
2017-10-07T04:44:12.930Z,0
2017-10-07T04:45:12.908Z,0
2017-10-07T04:46:13.539Z,0
2017-10-07T04:47:13.197Z,0
2017-10-07T04:48:13.535Z,0
2017-10-07T04:49:13.492Z,0
2017-10-07T04:50:12.831Z,0
2017-10-07T04:51:12.803Z,0
2017-10-07T04:52:13.112Z,0
2017-10-07T04:53:12.779Z,0
2017-10-07T04:54:12.768Z,0
2017-10-07T04:55:12.747Z,0
2017-10-07T04:56:13.370Z,0
2017-10-07T04:57:13.034Z,0
2017-10-07T04:58:12.699Z,0
2017-10-07T04:59:12.676Z,0
2017-10-07T05:00:12.984Z,0
2017-10-07T05:01:12.652Z,0
2017-10-07T05:02:12.626Z,0
2017-10-07T05:03:13.252Z,0
2017-10-07T05:04:12.276Z,0
2017-10-07T05:05:12.895Z,0
2017-10-07T05:06:12.560Z,0
2017-10-07T05:07:12.222Z,0
2017-10-07T05:08:12.528Z,0
2017-10-07T05:09:13.152Z,0
2017-10-07T05:10:12.816Z,0
2017-10-07T05:11:12.794Z,0
2017-10-07T05:12:12.135Z,0
2017-10-07T05:13:12.762Z,0
2017-10-07T05:14:12.109Z,0
2017-10-07T05:15:12.086Z,0
2017-10-07T05:16:12.390Z,0
2017-10-07T05:17:12.385Z,0
2017-10-07T05:18:12.679Z,0
2017-10-07T05:19:12.349Z,0
2017-10-07T05:20:12.661Z,0
2017-10-07T05:21:12.951Z,0
2017-10-07T05:22:12.618Z,0
2017-10-07T05:23:11.961Z,0
2017-10-07T05:24:12.913Z,0
2017-10-07T05:25:12.244Z,0
2017-10-07T05:26:12.240Z,0
2017-10-07T05:27:12.528Z,0
2017-10-07T05:28:12.195Z,0
2017-10-07T05:29:11.865Z,0
2017-10-07T05:30:12.814Z,0
2017-10-07T05:31:11.828Z,0
2017-10-07T05:32:12.452Z,0
2017-10-07T05:33:12.105Z,0
2017-10-07T05:34:12.101Z,0
2017-10-07T05:35:11.762Z,0
2017-10-07T05:36:11.738Z,0
2017-10-07T05:37:12.049Z,0
2017-10-07T05:38:12.033Z,0
2017-10-07T05:39:12.329Z,0
2017-10-07T05:40:12.634Z,0
2017-10-07T05:41:12.620Z,0
2017-10-07T05:42:12.281Z,0
2017-10-07T05:43:12.274Z,0
2017-10-07T05:44:12.256Z,0
2017-10-07T05:45:12.242Z,0
2017-10-07T05:46:11.906Z,0
2017-10-07T05:47:12.209Z,0
2017-10-07T05:48:11.876Z,0
2017-10-07T05:49:12.180Z,0
2017-10-07T05:50:11.830Z,0
2017-10-07T05:51:12.455Z,0
2017-10-07T05:52:11.154Z,5
2017-10-07T05:53:11.780Z,5
2017-10-07T05:54:11.449Z,5
2017-10-07T05:55:11.747Z,5
2017-10-07T05:56:12.043Z,5
2017-10-07T05:57:12.041Z,5
2017-10-07T05:58:11.049Z,5
2017-10-07T05:59:12.316Z,5
2017-10-07T06:00:12.307Z,10
2017-10-07T06:01:11.965Z,5
2017-10-07T06:02:11.630Z,5
2017-10-07T06:03:11.609Z,5
2017-10-07T06:04:10.960Z,5
2017-10-07T06:05:11.909Z,5
2017-10-07T06:06:10.929Z,5
2017-10-07T06:07:11.548Z,10
2017-10-07T06:08:11.219Z,10
2017-10-07T06:09:12.155Z,10
2017-10-07T06:10:11.515Z,10
2017-10-07T06:11:11.477Z,5
2017-10-07T06:12:11.144Z,5
2017-10-07T06:13:11.761Z,5
2017-10-07T06:14:11.428Z,5
2017-10-07T06:15:11.971Z,5
2017-10-07T06:16:11.390Z,10
2017-10-07T06:17:10.735Z,10
2017-10-07T06:18:11.044Z,10
2017-10-07T06:19:11.344Z,10
2017-10-07T06:20:11.652Z,10
2017-10-07T06:21:11.311Z,15
2017-10-07T06:22:10.970Z,15
2017-10-07T06:23:11.278Z,15
2017-10-07T06:24:11.261Z,15
2017-10-07T06:25:11.248Z,15
2017-10-07T06:26:10.910Z,15
2017-10-07T06:27:11.884Z,15
2017-10-07T06:28:11.869Z,15
2017-10-07T06:29:11.192Z,20
2017-10-07T06:30:11.171Z,20
2017-10-07T06:31:10.841Z,25
2017-10-07T06:32:11.774Z,25
2017-10-07T06:33:11.437Z,30
2017-10-07T06:34:11.430Z,30
2017-10-07T06:35:11.080Z,30
2017-10-07T06:36:11.061Z,30
2017-10-07T06:37:11.050Z,30
2017-10-07T06:38:11.346Z,30
2017-10-07T06:39:11.334Z,35
2017-10-07T06:40:11.319Z,35
2017-10-07T06:41:11.304Z,35
2017-10-07T06:42:10.653Z,35
2017-10-07T06:43:10.953Z,35
2017-10-07T06:44:11.259Z,35
2017-10-07T06:45:11.235Z,40
2017-10-07T06:46:11.221Z,45
2017-10-07T06:47:10.891Z,45
2017-10-07T06:48:10.868Z,45
2017-10-07T06:49:10.851Z,50
2017-10-07T06:50:10.845Z,55
2017-10-07T06:51:11.135Z,55
2017-10-07T06:52:11.122Z,60
2017-10-07T06:53:10.460Z,70
2017-10-07T06:54:10.772Z,75
2017-10-07T06:55:10.749Z,85
2017-10-07T06:56:11.058Z,85
2017-10-07T06:57:10.393Z,85
2017-10-07T06:58:10.699Z,85
2017-10-07T06:59:10.684Z,85
2017-10-07T07:00:10.672Z,85
2017-10-07T07:01:10.984Z,85
2017-10-07T07:02:10.959Z,95
2017-10-07T07:03:10.629Z,100
2017-10-07T07:04:10.923Z,100
2017-10-07T07:05:10.268Z,90
2017-10-07T07:06:11.212Z,85
2017-10-07T07:07:10.237Z,85
2017-10-07T07:08:10.543Z,85
2017-10-07T07:09:10.841Z,85
2017-10-07T07:10:10.824Z,85
2017-10-07T07:11:10.813Z,80
2017-10-07T07:12:10.152Z,75
2017-10-07T07:13:11.104Z,75
2017-10-07T07:14:10.773Z,65
2017-10-07T07:15:10.441Z,65
2017-10-07T07:16:10.410Z,60
2017-10-07T07:17:11.032Z,60
2017-10-07T07:18:10.056Z,55
2017-10-07T07:19:10.039Z,55
2017-10-07T07:20:10.345Z,55
2017-10-07T07:21:10.659Z,60
2017-10-07T07:22:10.638Z,65
2017-10-07T07:23:10.298Z,65
2017-10-07T07:24:10.283Z,60
2017-10-07T07:25:10.273Z,60
2017-10-07T07:26:10.574Z,60
2017-10-07T07:27:10.556Z,55
2017-10-07T07:28:10.228Z,55
2017-10-07T07:29:09.885Z,50
2017-10-07T07:30:10.182Z,50
2017-10-07T07:31:10.176Z,50
2017-10-07T07:32:10.155Z,55
2017-10-07T07:33:10.460Z,60
2017-10-07T07:34:10.443Z,65
2017-10-07T07:35:10.113Z,65
2017-10-07T07:36:10.729Z,70
2017-10-07T07:37:10.079Z,70
2017-10-07T07:38:10.056Z,70
2017-10-07T07:39:10.040Z,70
2017-10-07T07:40:09.702Z,70
2017-10-07T07:41:10.006Z,70
2017-10-07T07:42:09.992Z,75
2017-10-07T07:43:09.980Z,80
2017-10-07T07:44:09.636Z,85
2017-10-07T07:45:09.631Z,80
2017-10-07T07:46:09.617Z,80
2017-10-07T07:47:10.240Z,75
2017-10-07T07:48:10.222Z,75
2017-10-07T07:49:10.208Z,75
2017-10-07T07:50:09.874Z,75
2017-10-07T07:51:09.857Z,80
2017-10-07T07:52:09.517Z,80
2017-10-07T07:53:10.463Z,80
2017-10-07T07:54:09.484Z,80
2017-10-07T07:55:10.112Z,85
2017-10-07T07:56:09.452Z,90
2017-10-07T07:57:10.075Z,90
2017-10-07T07:58:09.421Z,90
2017-10-07T07:59:09.399Z,100
2017-10-07T08:00:10.028Z,110
2017-10-07T08:01:09.692Z,120
2017-10-07T08:02:10.003Z,130
2017-10-07T08:03:09.016Z,140
2017-10-07T08:04:09.326Z,130
2017-10-07T08:05:10.268Z,120
2017-10-07T08:06:09.609Z,115
2017-10-07T08:07:09.277Z,110
2017-10-07T08:08:09.899Z,110
2017-10-07T08:09:09.249Z,115
2017-10-07T08:10:08.909Z,115
2017-10-07T08:11:09.218Z,120
2017-10-07T08:12:09.222Z,120
2017-10-07T08:13:09.837Z,115
2017-10-07T08:14:09.494Z,120
2017-10-07T08:15:09.676Z,135
2017-10-07T08:16:09.470Z,125
2017-10-07T08:17:09.446Z,120
2017-10-07T08:18:09.759Z,115
2017-10-07T08:19:09.410Z,110
2017-10-07T08:20:09.071Z,110
2017-10-07T08:21:09.374Z,105
2017-10-07T08:22:09.691Z,105
2017-10-07T08:23:09.351Z,105
2017-10-07T08:24:09.014Z,105
2017-10-07T08:25:09.332Z,120
2017-10-07T08:26:09.305Z,115
2017-10-07T08:27:09.629Z,110
2017-10-07T08:28:09.264Z,115
2017-10-07T08:29:09.267Z,120
2017-10-07T08:30:09.901Z,145
2017-10-07T08:31:09.552Z,150
2017-10-07T08:32:09.231Z,155
2017-10-07T08:33:09.225Z,155
2017-10-07T08:34:09.506Z,150
2017-10-07T08:35:09.183Z,150
2017-10-07T08:36:09.509Z,145
2017-10-07T08:37:09.488Z,140
2017-10-07T08:38:09.442Z,135
2017-10-07T08:39:09.425Z,130
2017-10-07T08:40:09.409Z,130
2017-10-07T08:41:09.397Z,120
2017-10-07T08:42:09.071Z,115
2017-10-07T08:43:09.423Z,110
2017-10-07T08:44:09.033Z,110
2017-10-07T08:45:09.330Z,110
2017-10-07T08:46:09.634Z,110
2017-10-07T08:47:09.311Z,120
2017-10-07T08:48:09.019Z,120
2017-10-07T08:49:09.277Z,130
2017-10-07T08:50:08.934Z,135
2017-10-07T08:51:08.924Z,150
2017-10-07T08:52:09.230Z,165
2017-10-07T08:53:08.901Z,170
2017-10-07T08:54:09.528Z,160
2017-10-07T08:55:08.740Z,145
2017-10-07T08:56:09.167Z,130
2017-10-07T08:57:09.519Z,110
2017-10-07T08:58:09.151Z,105
2017-10-07T08:59:08.171Z,100
2017-10-07T09:00:08.804Z,95
2017-10-07T09:01:08.774Z,95
2017-10-07T09:02:08.762Z,80
2017-10-07T09:03:09.075Z,75
2017-10-07T09:04:08.731Z,85
2017-10-07T09:05:08.714Z,95
2017-10-07T09:06:09.015Z,95
2017-10-07T09:07:08.685Z,95
2017-10-07T09:08:09.326Z,95
2017-10-07T09:09:08.335Z,95
2017-10-07T09:10:08.957Z,95
2017-10-07T09:11:08.946Z,100
2017-10-07T09:12:08.929Z,100
2017-10-07T09:13:08.968Z,105
2017-10-07T09:14:08.582Z,110
2017-10-07T09:15:08.563Z,100
2017-10-07T09:16:08.552Z,95
2017-10-07T09:17:08.857Z,115
2017-10-07T09:18:07.887Z,110
2017-10-07T09:19:08.830Z,110
2017-10-07T09:20:07.846Z,105
2017-10-07T09:21:08.165Z,100
2017-10-07T09:22:08.139Z,105
2017-10-07T09:23:08.764Z,100
2017-10-07T09:24:09.066Z,100
2017-10-07T09:25:08.730Z,95
2017-10-07T09:26:08.712Z,105
2017-10-07T09:27:09.014Z,115
2017-10-07T09:28:08.417Z,115
2017-10-07T09:29:08.357Z,120
2017-10-07T09:30:08.656Z,130
2017-10-07T09:31:08.651Z,125
2017-10-07T09:32:07.981Z,140
2017-10-07T09:33:08.282Z,145
2017-10-07T09:34:08.598Z,150
2017-10-07T09:35:08.575Z,145
2017-10-07T09:36:08.558Z,165
2017-10-07T09:37:07.895Z,190
2017-10-07T09:38:08.531Z,195
2017-10-07T09:39:08.511Z,95
2017-10-07T09:40:08.501Z,120
2017-10-07T09:41:08.478Z,150
2017-10-07T09:42:08.145Z,165
2017-10-07T09:43:07.486Z,145
2017-10-07T09:44:08.431Z,165
2017-10-07T09:45:08.418Z,215
2017-10-07T09:46:08.407Z,250
2017-10-07T09:47:08.382Z,245
2017-10-07T09:48:08.693Z,240
2017-10-07T09:49:08.033Z,245
2017-10-07T09:50:08.020Z,250
2017-10-07T09:51:08.327Z,240
2017-10-07T09:52:07.987Z,215
2017-10-07T09:53:08.297Z,215
2017-10-07T09:54:07.644Z,205
2017-10-07T09:55:08.273Z,225
2017-10-07T09:56:07.943Z,215
2017-10-07T09:57:07.596Z,195
2017-10-07T09:58:07.904Z,195
2017-10-07T09:59:07.563Z,195
2017-10-07T10:00:08.199Z,170
2017-10-07T10:01:07.547Z,145
2017-10-07T10:02:07.518Z,115
2017-10-07T10:03:08.476Z,100
2017-10-07T10:04:07.853Z,95
2017-10-07T10:05:07.799Z,100
2017-10-07T10:06:07.781Z,95
2017-10-07T10:07:08.408Z,85
2017-10-07T10:08:07.430Z,90
2017-10-07T10:09:08.054Z,95
2017-10-07T10:10:07.723Z,95
2017-10-07T10:11:07.384Z,105
2017-10-07T10:12:07.364Z,110
2017-10-07T10:13:07.355Z,110
2017-10-07T10:14:07.982Z,100
2017-10-07T10:15:07.973Z,105
2017-10-07T10:16:08.277Z,85
2017-10-07T10:17:07.632Z,80
2017-10-07T10:18:08.275Z,80
2017-10-07T10:19:07.600Z,70
2017-10-07T10:20:07.897Z,65
2017-10-07T10:21:08.214Z,50
2017-10-07T10:22:07.553Z,50
2017-10-07T10:23:07.859Z,60
2017-10-07T10:24:07.189Z,65
2017-10-07T10:25:07.502Z,75
2017-10-07T10:26:07.820Z,95
2017-10-07T10:27:07.786Z,100
2017-10-07T10:28:08.112Z,95
2017-10-07T10:29:07.113Z,85
2017-10-07T10:30:07.419Z,85
2017-10-07T10:31:07.404Z,80
2017-10-07T10:32:07.404Z,80
2017-10-07T10:33:07.381Z,85
2017-10-07T10:34:07.690Z,100
2017-10-07T10:35:07.343Z,95
2017-10-07T10:36:07.008Z,100
2017-10-07T10:37:07.631Z,115
2017-10-07T10:38:07.613Z,145
2017-10-07T10:39:06.970Z,145
2017-10-07T10:40:07.262Z,140
2017-10-07T10:41:07.589Z,130
2017-10-07T10:42:07.240Z,125
2017-10-07T10:43:07.557Z,130
2017-10-07T10:44:07.526Z,120
2017-10-07T10:45:06.863Z,110
2017-10-07T10:46:06.874Z,110
2017-10-07T10:47:07.499Z,90
2017-10-07T10:48:06.498Z,85
2017-10-07T10:49:07.769Z,110
2017-10-07T10:50:07.426Z,115
2017-10-07T10:51:07.405Z,100
2017-10-07T10:52:07.400Z,115
2017-10-07T10:53:07.069Z,95
2017-10-07T10:54:07.054Z,90
2017-10-07T10:55:07.693Z,80
2017-10-07T10:56:07.017Z,80
2017-10-07T10:57:07.324Z,90
2017-10-07T10:58:06.975Z,85
2017-10-07T10:59:06.963Z,80
2017-10-07T11:00:07.299Z,75
2017-10-07T11:01:06.932Z,95
2017-10-07T11:02:06.952Z,100
2017-10-07T11:03:06.585Z,90
2017-10-07T11:04:06.568Z,95
2017-10-07T11:05:06.870Z,95
2017-10-07T11:06:06.851Z,115
2017-10-07T11:07:07.510Z,105
2017-10-07T11:08:06.832Z,130
2017-10-07T11:09:07.134Z,135
2017-10-07T11:10:07.101Z,140
2017-10-07T11:11:07.102Z,130
2017-10-07T11:12:07.074Z,135
2017-10-07T11:13:06.764Z,130
2017-10-07T11:14:07.069Z,135
2017-10-07T11:15:06.704Z,125
2017-10-07T11:16:07.336Z,120
2017-10-07T11:17:06.349Z,100
2017-10-07T11:18:06.975Z,100
2017-10-07T11:19:06.310Z,100
2017-10-07T11:20:06.947Z,75
2017-10-07T11:21:06.929Z,85
2017-10-07T11:22:06.596Z,85
2017-10-07T11:23:06.892Z,70
2017-10-07T11:24:06.560Z,75
2017-10-07T11:25:06.903Z,60
2017-10-07T11:26:06.878Z,60
2017-10-07T11:27:06.509Z,55
2017-10-07T11:28:06.167Z,70
2017-10-07T11:29:06.483Z,95
2017-10-07T11:30:06.455Z,95
2017-10-07T11:31:06.759Z,105
2017-10-07T11:32:06.105Z,75
2017-10-07T11:33:06.752Z,65
2017-10-07T11:34:07.045Z,60
2017-10-07T11:35:06.383Z,60
2017-10-07T11:36:06.362Z,45
2017-10-07T11:37:06.989Z,45
2017-10-07T11:38:06.641Z,50
2017-10-07T11:39:06.950Z,45
2017-10-07T11:40:06.615Z,40
2017-10-07T11:41:06.277Z,55
2017-10-07T11:42:06.902Z,50
2017-10-07T11:43:05.918Z,50
2017-10-07T11:44:06.224Z,65
2017-10-07T11:45:06.524Z,65
2017-10-07T11:46:06.513Z,65
2017-10-07T11:47:06.495Z,55
2017-10-07T11:48:06.159Z,60
2017-10-07T11:49:06.783Z,70
2017-10-07T11:50:06.121Z,60
2017-10-07T11:51:06.434Z,50
2017-10-07T11:52:06.084Z,55
2017-10-07T11:53:06.077Z,60
2017-10-07T11:54:05.737Z,60
2017-10-07T11:55:06.036Z,75
2017-10-07T11:56:06.362Z,60
2017-10-07T11:57:06.011Z,70
2017-10-07T11:58:06.671Z,60
2017-10-07T11:59:06.301Z,60
2017-10-07T12:00:05.649Z,60
2017-10-07T12:01:06.256Z,50
2017-10-07T12:02:06.250Z,45
2017-10-07T12:03:06.571Z,55
2017-10-07T12:04:06.207Z,60
2017-10-07T12:05:06.187Z,55
2017-10-07T12:06:05.528Z,45
2017-10-07T12:07:06.154Z,50
2017-10-07T12:08:06.146Z,60
2017-10-07T12:09:05.165Z,55
2017-10-07T12:10:05.779Z,45
2017-10-07T12:11:06.094Z,55
2017-10-07T12:12:05.747Z,50
2017-10-07T12:13:05.733Z,55
2017-10-07T12:14:05.717Z,50
2017-10-07T12:15:06.225Z,50
2017-10-07T12:16:06.328Z,40
2017-10-07T12:17:05.655Z,45
2017-10-07T12:18:05.973Z,40
2017-10-07T12:19:05.947Z,40
2017-10-07T12:20:05.661Z,30
2017-10-07T12:21:05.596Z,35
2017-10-07T12:22:05.900Z,35
2017-10-07T12:23:04.930Z,35
2017-10-07T12:24:05.873Z,45
2017-10-07T12:25:05.203Z,35
2017-10-07T12:26:05.508Z,35
2017-10-07T12:27:05.497Z,30
2017-10-07T12:28:05.157Z,40
2017-10-07T12:29:05.780Z,35
2017-10-07T12:30:05.440Z,35
2017-10-07T12:31:05.760Z,50
2017-10-07T12:32:05.727Z,60
2017-10-07T12:33:05.724Z,55
2017-10-07T12:34:04.734Z,50
2017-10-07T12:35:05.684Z,55
2017-10-07T12:36:05.025Z,50
2017-10-07T12:37:05.341Z,45
2017-10-07T12:38:05.638Z,50
2017-10-07T12:39:05.604Z,60
2017-10-07T12:40:05.916Z,60
2017-10-07T12:41:05.261Z,60
2017-10-07T12:42:05.252Z,60
2017-10-07T12:43:05.865Z,45
2017-10-07T12:44:05.197Z,55
2017-10-07T12:45:05.181Z,50
2017-10-07T12:46:04.849Z,60
2017-10-07T12:47:05.475Z,60
2017-10-07T12:48:04.813Z,55
2017-10-07T12:49:05.766Z,60
2017-10-07T12:50:05.418Z,60
2017-10-07T12:51:05.720Z,60
2017-10-07T12:52:05.703Z,55
2017-10-07T12:53:05.053Z,50
2017-10-07T12:54:04.708Z,60
2017-10-07T12:55:05.014Z,70
2017-10-07T12:56:04.996Z,70
2017-10-07T12:57:04.995Z,60
2017-10-07T12:58:04.968Z,60
2017-10-07T12:59:04.618Z,50
2017-10-07T13:00:05.255Z,60
2017-10-07T13:01:05.225Z,60
2017-10-07T13:02:04.895Z,65
2017-10-07T13:03:04.877Z,85
2017-10-07T13:04:05.502Z,75
2017-10-07T13:05:05.164Z,85
2017-10-07T13:06:04.836Z,70
2017-10-07T13:07:04.820Z,75
2017-10-07T13:08:05.117Z,60
2017-10-07T13:09:04.827Z,55
2017-10-07T13:10:05.403Z,55
2017-10-07T13:11:05.074Z,70
2017-10-07T13:12:05.054Z,70
2017-10-07T13:13:04.726Z,65
2017-10-07T13:14:05.335Z,60
2017-10-07T13:15:04.683Z,55
2017-10-07T13:16:04.684Z,60
2017-10-07T13:17:04.332Z,60
2017-10-07T13:18:04.312Z,55
2017-10-07T13:19:04.934Z,65
2017-10-07T13:20:04.913Z,55
2017-10-07T13:21:04.574Z,55
2017-10-07T13:22:04.553Z,60
2017-10-07T13:23:03.897Z,50
2017-10-07T13:24:04.541Z,50
2017-10-07T13:25:04.830Z,55
2017-10-07T13:26:04.805Z,40
2017-10-07T13:27:04.487Z,60
2017-10-07T13:28:04.461Z,50
2017-10-07T13:29:04.434Z,55
2017-10-07T13:30:04.423Z,50
2017-10-07T13:31:05.088Z,45
2017-10-07T13:32:04.068Z,45
2017-10-07T13:33:04.688Z,40
2017-10-07T13:34:04.549Z,35
2017-10-07T13:35:04.662Z,40
2017-10-07T13:36:03.995Z,45
2017-10-07T13:37:03.990Z,45
2017-10-07T13:38:04.283Z,35
2017-10-07T13:39:04.275Z,50
2017-10-07T13:40:04.248Z,45
2017-10-07T13:41:04.870Z,40
2017-10-07T13:42:04.220Z,35
2017-10-07T13:43:04.532Z,35
2017-10-07T13:44:04.180Z,30
2017-10-07T13:45:03.523Z,35
2017-10-07T13:46:04.472Z,30
2017-10-07T13:47:04.453Z,25
2017-10-07T13:48:04.113Z,30
2017-10-07T13:49:04.411Z,35
2017-10-07T13:50:03.434Z,35
2017-10-07T13:51:04.389Z,30
2017-10-07T13:52:04.055Z,35
2017-10-07T13:53:04.359Z,40
2017-10-07T13:54:04.013Z,35
2017-10-07T13:55:04.324Z,35
2017-10-07T13:56:03.338Z,50
2017-10-07T13:57:03.961Z,35
2017-10-07T13:58:03.632Z,45
2017-10-07T13:59:04.248Z,45
2017-10-07T14:00:04.545Z,35
2017-10-07T14:01:03.265Z,45
2017-10-07T14:02:03.237Z,40
2017-10-07T14:03:03.867Z,45
2017-10-07T14:04:04.163Z,35
2017-10-07T14:05:03.507Z,40
2017-10-07T14:06:04.143Z,35
2017-10-07T14:07:03.804Z,35
2017-10-07T14:08:03.139Z,30
2017-10-07T14:09:03.762Z,40
2017-10-07T14:10:03.425Z,40
2017-10-07T14:11:03.088Z,40
2017-10-07T14:12:04.357Z,45
2017-10-07T14:13:03.693Z,45
2017-10-07T14:14:03.355Z,35
2017-10-07T14:15:03.857Z,35
2017-10-07T14:16:03.320Z,35
2017-10-07T14:17:03.304Z,30
2017-10-07T14:18:04.252Z,40
2017-10-07T14:19:04.227Z,30
2017-10-07T14:20:03.892Z,30
2017-10-07T14:21:03.578Z,35
2017-10-07T14:22:03.567Z,35
2017-10-07T14:23:03.534Z,35